sensor_id;sensor_type;location;lat;lon;timestamp;temperature;humidity
40622;DHT22;26324;52.040;11.528;2024-01-11T09:37:05;-3274.50;71.50
40622;DHT22;26324;52.040;11.528;2024-01-11T09:39:32;-3274.20;72.40
40622;DHT22;26324;52.040;11.528;2024-01-11T09:42:07;-3274.00;72.80
40622;DHT22;26324;52.040;11.528;2024-01-11T09:44:37;-3274.20;72.60
40622;DHT22;26324;52.040;11.528;2024-01-11T09:47:08;-3274.20;72.30
40622;DHT22;26324;52.040;11.528;2024-01-11T09:49:43;-3274.30;72.20
40622;DHT22;26324;52.040;11.528;2024-01-11T09:52:12;-3274.40;71.70
40622;DHT22;26324;52.040;11.528;2024-01-11T09:54:42;-3274.40;72.90
40622;DHT22;26324;52.040;11.528;2024-01-11T09:57:09;-3274.60;72.80
40622;DHT22;26324;52.040;11.528;2024-01-11T10:02:07;-3274.90;70.70
40622;DHT22;26324;52.040;11.528;2024-01-11T10:04:37;-3275.20;70.40
40622;DHT22;26324;52.040;11.528;2024-01-11T10:07:05;-3275.30;70.10
40622;DHT22;26324;52.040;11.528;2024-01-11T10:09:35;-3275.60;69.80
40622;DHT22;26324;52.040;11.528;2024-01-11T10:12:04;-3275.60;70.10
40622;DHT22;26324;52.040;11.528;2024-01-11T10:14:32;-3275.50;68.90
40622;DHT22;26324;52.040;11.528;2024-01-11T10:16:59;-3275.50;68.30
40622;DHT22;26324;52.040;11.528;2024-01-11T10:19:28;-3275.30;67.70
40622;DHT22;26324;52.040;11.528;2024-01-11T10:21:57;-3275.30;69.40
40622;DHT22;26324;52.040;11.528;2024-01-11T10:24:24;-3275.50;69.30
40622;DHT22;26324;52.040;11.528;2024-01-11T10:26:56;-3275.50;68.00
40622;DHT22;26324;52.040;11.528;2024-01-11T10:29:31;-3275.40;68.50
40622;DHT22;26324;52.040;11.528;2024-01-11T10:31:59;-3275.30;68.80
40622;DHT22;26324;52.040;11.528;2024-01-11T10:34:26;-3275.20;69.70
40622;DHT22;26324;52.040;11.528;2024-01-11T10:36:54;-3275.10;70.30
40622;DHT22;26324;52.040;11.528;2024-01-11T10:39:25;-3275.10;70.50
40622;DHT22;26324;52.040;11.528;2024-01-11T10:42:06;-3275.00;70.80
40622;DHT22;26324;52.040;11.528;2024-01-11T10:44:35;-3275.00;70.90
40622;DHT22;26324;52.040;11.528;2024-01-11T10:49:39;-3275.40;70.10
40622;DHT22;26324;52.040;11.528;2024-01-11T10:52:08;-3275.60;69.80
40622;DHT22;26324;52.040;11.528;2024-01-11T10:54:36;-3275.70;69.30
40622;DHT22;26324;52.040;11.528;2024-01-11T10:59:36;-3275.90;68.70
40622;DHT22;26324;52.040;11.528;2024-01-11T11:02:07;-3275.90;69.20
40622;DHT22;26324;52.040;11.528;2024-01-11T11:04:40;-3275.90;67.10
40622;DHT22;26324;52.040;11.528;2024-01-11T11:07:09;-3275.80;69.30
40622;DHT22;26324;52.040;11.528;2024-01-11T11:09:37;-3275.70;69.60
40622;DHT22;26324;52.040;11.528;2024-01-11T11:12:06;-3275.60;69.50
40622;DHT22;26324;52.040;11.528;2024-01-11T11:14:34;-3275.50;69.00
40622;DHT22;26324;52.040;11.528;2024-01-11T11:17:02;-3275.50;69.40
40622;DHT22;26324;52.040;11.528;2024-01-11T11:19:31;-3275.50;69.50
40622;DHT22;26324;52.040;11.528;2024-01-11T11:22:03;-3275.50;68.30
40622;DHT22;26324;52.040;11.528;2024-01-11T11:24:34;-3275.60;67.90
40622;DHT22;26324;52.040;11.528;2024-01-11T11:27:02;-3275.70;67.60
40622;DHT22;26324;52.040;11.528;2024-01-11T11:29:30;-3275.80;67.70
40622;DHT22;26324;52.040;11.528;2024-01-11T11:31:58;-3276.00;66.90
40622;DHT22;26324;52.040;11.528;2024-01-11T11:34:42;-3276.10;66.60
40622;DHT22;26324;52.040;11.528;2024-01-11T11:37:12;-3276.10;67.00
40622;DHT22;26324;52.040;11.528;2024-01-11T11:42:17;0.00;64.40
40622;DHT22;26324;52.040;11.528;2024-01-11T11:44:48;-3276.50;64.60
40622;DHT22;26324;52.040;11.528;2024-01-11T11:47:21;-3276.40;64.70
40622;DHT22;26324;52.040;11.528;2024-01-11T11:50:03;-3276.30;64.80
40622;DHT22;26324;52.040;11.528;2024-01-11T11:52:37;-3276.30;65.50
40622;DHT22;26324;52.040;11.528;2024-01-11T11:55:08;-3276.20;65.60
40622;DHT22;26324;52.040;11.528;2024-01-11T11:57:36;-3276.20;65.70
40622;DHT22;26324;52.040;11.528;2024-01-11T12:00:04;-3276.40;66.50
40622;DHT22;26324;52.040;11.528;2024-01-11T12:02:39;-3276.20;67.20
40622;DHT22;26324;52.040;11.528;2024-01-11T12:05:06;-3276.10;68.00
40622;DHT22;26324;52.040;11.528;2024-01-11T12:07:34;-3276.00;68.50
40622;DHT22;26324;52.040;11.528;2024-01-11T12:10:02;-3275.90;69.00
40622;DHT22;26324;52.040;11.528;2024-01-11T12:12:35;-3275.90;69.40
40622;DHT22;26324;52.040;11.528;2024-01-11T12:15:06;-3275.70;69.90
40622;DHT22;26324;52.040;11.528;2024-01-11T12:17:35;-3275.60;70.60
40622;DHT22;26324;52.040;11.528;2024-01-11T12:20:06;-3275.50;71.50
40622;DHT22;26324;52.040;11.528;2024-01-11T12:22:33;-3275.50;71.40
40622;DHT22;26324;52.040;11.528;2024-01-11T12:25:01;-3275.40;72.10
40622;DHT22;26324;52.040;11.528;2024-01-11T12:27:30;-3275.40;72.50
40622;DHT22;26324;52.040;11.528;2024-01-11T12:29:57;-3275.30;73.10
40622;DHT22;26324;52.040;11.528;2024-01-11T12:40:22;-3276.10;71.90
40622;DHT22;26324;52.040;11.528;2024-01-11T12:42:50;-3276.10;71.90
40622;DHT22;26324;52.040;11.528;2024-01-11T12:55:18;-3276.10;75.10
40622;DHT22;26324;52.040;11.528;2024-01-11T12:57:45;-3275.60;76.80
40622;DHT22;26324;52.040;11.528;2024-01-11T13:00:14;-3275.40;78.30
40622;DHT22;26324;52.040;11.528;2024-01-11T13:02:43;-3275.30;79.00
40622;DHT22;26324;52.040;11.528;2024-01-11T13:05:13;-3275.30;79.40
40622;DHT22;26324;52.040;11.528;2024-01-11T13:07:41;-3275.20;79.80
40622;DHT22;26324;52.040;11.528;2024-01-11T13:10:10;-3275.20;80.30
40622;DHT22;26324;52.040;11.528;2024-01-11T13:12:37;-3275.30;80.70
40622;DHT22;26324;52.040;11.528;2024-01-11T13:15:05;-3275.30;80.70
40622;DHT22;26324;52.040;11.528;2024-01-11T13:17:33;-3275.30;80.90
40622;DHT22;26324;52.040;11.528;2024-01-11T13:20:00;-3275.30;81.10
40622;DHT22;26324;52.040;11.528;2024-01-11T13:22:28;-3275.30;81.30
40622;DHT22;26324;52.040;11.528;2024-01-11T13:24:56;-3275.30;81.30
40622;DHT22;26324;52.040;11.528;2024-01-11T13:27:23;-3275.30;81.60
40622;DHT22;26324;52.040;11.528;2024-01-11T13:29:50;-3275.30;81.60
40622;DHT22;26324;52.040;11.528;2024-01-11T13:32:18;-3275.30;81.70
40622;DHT22;26324;52.040;11.528;2024-01-11T13:34:45;-3275.20;81.90
40622;DHT22;26324;52.040;11.528;2024-01-11T13:37:13;-3275.10;82.10
40622;DHT22;26324;52.040;11.528;2024-01-11T13:39:40;-3275.20;82.90
40622;DHT22;26324;52.040;11.528;2024-01-11T13:47:06;-3276.10;80.70
40622;DHT22;26324;52.040;11.528;2024-01-11T13:49:33;-3276.10;80.80
40622;DHT22;26324;52.040;11.528;2024-01-11T13:54:33;-3275.50;82.50
40622;DHT22;26324;52.040;11.528;2024-01-11T13:57:01;-3275.40;83.60
40622;DHT22;26324;52.040;11.528;2024-01-11T13:59:29;-3275.30;84.40
40622;DHT22;26324;52.040;11.528;2024-01-11T14:01:57;-3275.40;84.40
40622;DHT22;26324;52.040;11.528;2024-01-11T14:04:24;-3275.40;84.70
40622;DHT22;26324;52.040;11.528;2024-01-11T14:06:52;-3275.50;85.40
40622;DHT22;26324;52.040;11.528;2024-01-11T14:09:20;-3275.20;85.30
40622;DHT22;26324;52.040;11.528;2024-01-11T14:11:49;-3275.20;86.10
40622;DHT22;26324;52.040;11.528;2024-01-11T14:14:18;-3275.20;86.10
40622;DHT22;26324;52.040;11.528;2024-01-11T14:16:47;-3275.20;86.50
40622;DHT22;26324;52.040;11.528;2024-01-11T14:19:15;-3275.20;86.90
40622;DHT22;26324;52.040;11.528;2024-01-11T14:21:43;-3275.30;86.80
40622;DHT22;26324;52.040;11.528;2024-01-11T14:24:11;-3275.30;86.80
40622;DHT22;26324;52.040;11.528;2024-01-11T14:26:40;-3275.30;87.50
40622;DHT22;26324;52.040;11.528;2024-01-11T14:29:08;-3275.30;87.40
40622;DHT22;26324;52.040;11.528;2024-01-11T14:31:35;-3275.40;87.60
40622;DHT22;26324;52.040;11.528;2024-01-11T14:34:04;-3275.30;87.70
40622;DHT22;26324;52.040;11.528;2024-01-11T14:36:32;-3275.20;87.70
40622;DHT22;26324;52.040;11.528;2024-01-11T14:38:59;-3275.20;87.70
40622;DHT22;26324;52.040;11.528;2024-01-11T14:41:27;-3275.10;87.70
40622;DHT22;26324;52.040;11.528;2024-01-11T14:48:49;-3275.20;87.80
40622;DHT22;26324;52.040;11.528;2024-01-11T14:51:17;-3275.20;87.70
40622;DHT22;26324;52.040;11.528;2024-01-11T14:53:44;-3275.10;87.80
40622;DHT22;26324;52.040;11.528;2024-01-11T14:56:12;-3275.00;87.90
40622;DHT22;26324;52.040;11.528;2024-01-11T15:01:07;-3275.10;87.90
40622;DHT22;26324;52.040;11.528;2024-01-11T15:06:02;-3275.10;88.00
40622;DHT22;26324;52.040;11.528;2024-01-11T15:08:31;-3275.10;88.20
40622;DHT22;26324;52.040;11.528;2024-01-11T15:10:59;-3275.20;88.30
40622;DHT22;26324;52.040;11.528;2024-01-11T15:13:26;-3275.20;87.90
40622;DHT22;26324;52.040;11.528;2024-01-11T15:15:55;-3275.20;87.90
40622;DHT22;26324;52.040;11.528;2024-01-11T15:18:23;-3275.20;88.00
40622;DHT22;26324;52.040;11.528;2024-01-11T15:20:50;-3275.20;88.00
40622;DHT22;26324;52.040;11.528;2024-01-11T15:23:20;-3275.30;88.30
40622;DHT22;26324;52.040;11.528;2024-01-11T15:28:16;-3275.30;87.90
40622;DHT22;26324;52.040;11.528;2024-01-11T15:30:43;-3275.20;88.30
40622;DHT22;26324;52.040;11.528;2024-01-11T15:33:10;-3275.20;88.60
40622;DHT22;26324;52.040;11.528;2024-01-11T15:35:38;-3275.30;88.60
40622;DHT22;26324;52.040;11.528;2024-01-11T15:38:06;-3275.30;88.60
40622;DHT22;26324;52.040;11.528;2024-01-11T15:40:33;-3275.40;88.50
40622;DHT22;26324;52.040;11.528;2024-01-11T15:43:00;-3275.40;88.80
40622;DHT22;26324;52.040;11.528;2024-01-11T15:45:28;-3275.40;88.50
40622;DHT22;26324;52.040;11.528;2024-01-11T15:50:24;-3275.50;88.60
40622;DHT22;26324;52.040;11.528;2024-01-11T15:52:52;-3275.50;88.70
40622;DHT22;26324;52.040;11.528;2024-01-11T15:57:47;-3275.50;88.80
40622;DHT22;26324;52.040;11.528;2024-01-11T16:00:15;-3275.50;88.80
40622;DHT22;26324;52.040;11.528;2024-01-11T16:02:42;-3275.50;88.90
40622;DHT22;26324;52.040;11.528;2024-01-11T16:05:10;-3275.50;88.80
40622;DHT22;26324;52.040;11.528;2024-01-11T16:07:38;-3275.50;88.90
40622;DHT22;26324;52.040;11.528;2024-01-11T16:10:06;-3275.50;89.10
40622;DHT22;26324;52.040;11.528;2024-01-11T16:12:33;-3275.60;89.20
40622;DHT22;26324;52.040;11.528;2024-01-11T16:15:01;-3275.70;88.80
40622;DHT22;26324;52.040;11.528;2024-01-11T16:17:32;-3275.70;88.70
40622;DHT22;26324;52.040;11.528;2024-01-11T16:20:00;-3275.70;88.80
40622;DHT22;26324;52.040;11.528;2024-01-11T16:22:28;-3275.80;88.90
40622;DHT22;26324;52.040;11.528;2024-01-11T16:24:55;-3275.80;88.80
40622;DHT22;26324;52.040;11.528;2024-01-11T16:27:22;-3275.80;88.80
40622;DHT22;26324;52.040;11.528;2024-01-11T16:29:50;-3275.80;88.60
40622;DHT22;26324;52.040;11.528;2024-01-11T16:34:47;-3275.90;88.60
40622;DHT22;26324;52.040;11.528;2024-01-11T16:37:14;-3275.90;88.50
40622;DHT22;26324;52.040;11.528;2024-01-11T16:39:43;-3276.00;88.80
40622;DHT22;26324;52.040;11.528;2024-01-11T16:47:07;-3276.00;88.30
40622;DHT22;26324;52.040;11.528;2024-01-11T16:49:35;-3276.00;88.70
40622;DHT22;26324;52.040;11.528;2024-01-11T16:52:03;-3275.90;88.30
40622;DHT22;26324;52.040;11.528;2024-01-11T16:54:31;-3276.00;88.80
40622;DHT22;26324;52.040;11.528;2024-01-11T16:56:59;-3276.00;88.90
40622;DHT22;26324;52.040;11.528;2024-01-11T16:59:26;-3276.10;89.10
40622;DHT22;26324;52.040;11.528;2024-01-11T17:01:54;-3276.10;88.90
40622;DHT22;26324;52.040;11.528;2024-01-11T17:04:21;-3276.10;89.20
40622;DHT22;26324;52.040;11.528;2024-01-11T17:06:48;-3276.20;89.20
40622;DHT22;26324;52.040;11.528;2024-01-11T17:09:16;-3276.20;89.00
40622;DHT22;26324;52.040;11.528;2024-01-11T17:11:43;-3276.40;89.10
40622;DHT22;26324;52.040;11.528;2024-01-11T17:14:10;-3276.40;89.10
40622;DHT22;26324;52.040;11.528;2024-01-11T17:16:38;-3276.50;89.30
40622;DHT22;26324;52.040;11.528;2024-01-11T17:19:06;-3276.60;89.00
40622;DHT22;26324;52.040;11.528;2024-01-11T17:21:34;0.00;88.80
40622;DHT22;26324;52.040;11.528;2024-01-11T17:24:01;0.00;88.40
40622;DHT22;26324;52.040;11.528;2024-01-11T17:26:29;0.00;88.60
40622;DHT22;26324;52.040;11.528;2024-01-11T17:28:56;0.00;88.60
40622;DHT22;26324;52.040;11.528;2024-01-11T17:31:23;0.00;88.80
40622;DHT22;26324;52.040;11.528;2024-01-11T17:33:51;0.00;88.90
40622;DHT22;26324;52.040;11.528;2024-01-11T17:36:18;0.10;88.70
40622;DHT22;26324;52.040;11.528;2024-01-11T17:38:45;0.20;88.80
40622;DHT22;26324;52.040;11.528;2024-01-11T17:41:13;0.10;88.40
40622;DHT22;26324;52.040;11.528;2024-01-11T17:43:40;0.10;88.50
40622;DHT22;26324;52.040;11.528;2024-01-11T17:46:07;0.10;88.50
40622;DHT22;26324;52.040;11.528;2024-01-11T17:48:35;0.10;88.70
40622;DHT22;26324;52.040;11.528;2024-01-11T17:51:09;0.00;89.20
40622;DHT22;26324;52.040;11.528;2024-01-11T17:53:37;0.00;89.40
40622;DHT22;26324;52.040;11.528;2024-01-11T17:56:05;0.00;89.40
40622;DHT22;26324;52.040;11.528;2024-01-11T17:58:32;0.00;89.50
40622;DHT22;26324;52.040;11.528;2024-01-11T18:00:59;0.10;89.70
40622;DHT22;26324;52.040;11.528;2024-01-11T18:03:27;0.10;89.60
40622;DHT22;26324;52.040;11.528;2024-01-11T18:05:54;0.20;89.30
40622;DHT22;26324;52.040;11.528;2024-01-11T18:08:22;0.30;89.30
40622;DHT22;26324;52.040;11.528;2024-01-11T18:10:49;0.40;88.80
40622;DHT22;26324;52.040;11.528;2024-01-11T18:13:16;0.50;88.40
40622;DHT22;26324;52.040;11.528;2024-01-11T18:15:46;0.60;88.30
40622;DHT22;26324;52.040;11.528;2024-01-11T18:18:17;0.60;88.00
40622;DHT22;26324;52.040;11.528;2024-01-11T18:20:44;0.60;87.80
40622;DHT22;26324;52.040;11.528;2024-01-11T18:23:12;0.50;88.20
40622;DHT22;26324;52.040;11.528;2024-01-11T18:25:40;0.60;88.10
40622;DHT22;26324;52.040;11.528;2024-01-11T18:28:08;0.60;87.90
40622;DHT22;26324;52.040;11.528;2024-01-11T18:30:35;0.60;87.90
40622;DHT22;26324;52.040;11.528;2024-01-11T18:33:03;0.70;87.70
40622;DHT22;26324;52.040;11.528;2024-01-11T18:35:31;0.70;87.70
40622;DHT22;26324;52.040;11.528;2024-01-11T18:37:58;0.70;87.60
40622;DHT22;26324;52.040;11.528;2024-01-11T18:40:26;0.70;87.60
40622;DHT22;26324;52.040;11.528;2024-01-11T18:42:54;0.70;87.60
40622;DHT22;26324;52.040;11.528;2024-01-11T18:45:21;0.60;87.80
40622;DHT22;26324;52.040;11.528;2024-01-11T18:47:49;0.70;87.70
40622;DHT22;26324;52.040;11.528;2024-01-11T18:50:18;0.60;88.10
40622;DHT22;26324;52.040;11.528;2024-01-11T18:52:46;0.60;88.30
40622;DHT22;26324;52.040;11.528;2024-01-11T18:55:14;0.60;88.20
40622;DHT22;26324;52.040;11.528;2024-01-11T18:57:44;0.60;88.10
40622;DHT22;26324;52.040;11.528;2024-01-11T19:00:11;0.60;88.60
40622;DHT22;26324;52.040;11.528;2024-01-11T19:02:39;0.60;88.70
40622;DHT22;26324;52.040;11.528;2024-01-11T19:05:06;0.60;88.70
40622;DHT22;26324;52.040;11.528;2024-01-11T19:07:34;0.50;88.50
40622;DHT22;26324;52.040;11.528;2024-01-11T19:10:02;0.40;89.40
40622;DHT22;26324;52.040;11.528;2024-01-11T19:12:30;0.40;89.70
40622;DHT22;26324;52.040;11.528;2024-01-11T19:14:58;0.40;89.30
40622;DHT22;26324;52.040;11.528;2024-01-11T19:17:25;0.40;89.70
40622;DHT22;26324;52.040;11.528;2024-01-11T19:19:53;0.40;89.70
40622;DHT22;26324;52.040;11.528;2024-01-11T19:22:22;0.50;89.60
40622;DHT22;26324;52.040;11.528;2024-01-11T19:24:49;0.40;89.70
40622;DHT22;26324;52.040;11.528;2024-01-11T19:27:17;0.40;89.80
40622;DHT22;26324;52.040;11.528;2024-01-11T19:29:44;0.40;89.90
40622;DHT22;26324;52.040;11.528;2024-01-11T19:32:12;0.40;89.90
40622;DHT22;26324;52.040;11.528;2024-01-11T19:34:40;0.50;89.90
40622;DHT22;26324;52.040;11.528;2024-01-11T19:37:07;0.50;89.90
40622;DHT22;26324;52.040;11.528;2024-01-11T19:39:34;0.50;89.70
40622;DHT22;26324;52.040;11.528;2024-01-11T19:42:02;0.40;89.60
40622;DHT22;26324;52.040;11.528;2024-01-11T19:44:29;0.50;89.90
40622;DHT22;26324;52.040;11.528;2024-01-11T19:46:57;0.50;89.60
40622;DHT22;26324;52.040;11.528;2024-01-11T19:49:24;0.50;89.90
40622;DHT22;26324;52.040;11.528;2024-01-11T19:51:51;0.50;89.50
40622;DHT22;26324;52.040;11.528;2024-01-11T19:54:19;0.50;89.50
40622;DHT22;26324;52.040;11.528;2024-01-11T19:56:46;0.60;89.70
40622;DHT22;26324;52.040;11.528;2024-01-11T19:59:14;0.70;89.50
40622;DHT22;26324;52.040;11.528;2024-01-11T20:01:42;0.60;89.00
40622;DHT22;26324;52.040;11.528;2024-01-11T20:04:10;0.60;89.20
40622;DHT22;26324;52.040;11.528;2024-01-11T20:06:37;0.50;89.50
40622;DHT22;26324;52.040;11.528;2024-01-11T20:09:05;0.60;89.80
40622;DHT22;26324;52.040;11.528;2024-01-11T20:11:32;0.60;89.70
40622;DHT22;26324;52.040;11.528;2024-01-11T20:14:01;0.60;89.70
40622;DHT22;26324;52.040;11.528;2024-01-11T20:16:29;0.70;89.40
40622;DHT22;26324;52.040;11.528;2024-01-11T20:18:58;0.80;89.10
40622;DHT22;26324;52.040;11.528;2024-01-11T20:21:27;0.80;88.90
40622;DHT22;26324;52.040;11.528;2024-01-11T20:23:54;0.80;88.80
40622;DHT22;26324;52.040;11.528;2024-01-11T20:26:21;0.80;88.90
40622;DHT22;26324;52.040;11.528;2024-01-11T20:28:53;0.80;88.80
40622;DHT22;26324;52.040;11.528;2024-01-11T20:31:20;0.70;88.80
40622;DHT22;26324;52.040;11.528;2024-01-11T20:33:48;0.70;89.00
40622;DHT22;26324;52.040;11.528;2024-01-11T20:36:15;0.60;89.20
40622;DHT22;26324;52.040;11.528;2024-01-11T20:38:43;0.60;89.50
40622;DHT22;26324;52.040;11.528;2024-01-11T20:41:10;0.60;89.10
40622;DHT22;26324;52.040;11.528;2024-01-11T20:43:40;0.60;89.50
40622;DHT22;26324;52.040;11.528;2024-01-11T20:46:08;0.50;89.30
40622;DHT22;26324;52.040;11.528;2024-01-11T20:48:35;0.60;89.90
40622;DHT22;26324;52.040;11.528;2024-01-11T20:51:03;0.80;89.50
40622;DHT22;26324;52.040;11.528;2024-01-11T20:53:30;0.80;89.00
40622;DHT22;26324;52.040;11.528;2024-01-11T20:55:58;0.90;88.80
40622;DHT22;26324;52.040;11.528;2024-01-11T20:58:25;0.90;88.50
40622;DHT22;26324;52.040;11.528;2024-01-11T21:00:53;1.00;88.40
40622;DHT22;26324;52.040;11.528;2024-01-11T21:03:20;1.00;88.30
40622;DHT22;26324;52.040;11.528;2024-01-11T21:05:47;1.00;88.00
40622;DHT22;26324;52.040;11.528;2024-01-11T21:08:19;1.00;88.20
40622;DHT22;26324;52.040;11.528;2024-01-11T21:10:47;1.00;88.10
40622;DHT22;26324;52.040;11.528;2024-01-11T21:13:14;1.10;88.00
40622;DHT22;26324;52.040;11.528;2024-01-11T21:15:43;1.00;88.00
40622;DHT22;26324;52.040;11.528;2024-01-11T21:18:10;1.00;88.10
40622;DHT22;26324;52.040;11.528;2024-01-11T21:20:39;1.10;88.00
40622;DHT22;26324;52.040;11.528;2024-01-11T21:23:07;1.10;87.80
40622;DHT22;26324;52.040;11.528;2024-01-11T21:25:34;1.10;87.80
40622;DHT22;26324;52.040;11.528;2024-01-11T21:28:01;1.10;87.70
40622;DHT22;26324;52.040;11.528;2024-01-11T21:30:30;1.10;87.70
40622;DHT22;26324;52.040;11.528;2024-01-11T21:32:58;1.10;87.60
40622;DHT22;26324;52.040;11.528;2024-01-11T21:35:25;1.10;87.50
40622;DHT22;26324;52.040;11.528;2024-01-11T21:37:53;1.10;87.50
40622;DHT22;26324;52.040;11.528;2024-01-11T21:40:20;1.10;87.40
40622;DHT22;26324;52.040;11.528;2024-01-11T21:45:15;1.10;87.50
40622;DHT22;26324;52.040;11.528;2024-01-11T21:47:43;1.10;87.60
40622;DHT22;26324;52.040;11.528;2024-01-11T21:50:10;1.10;87.60
40622;DHT22;26324;52.040;11.528;2024-01-11T21:55:06;1.10;87.40
40622;DHT22;26324;52.040;11.528;2024-01-11T21:57:34;1.10;87.50
40622;DHT22;26324;52.040;11.528;2024-01-11T22:00:01;1.10;87.50
40622;DHT22;26324;52.040;11.528;2024-01-11T22:02:31;1.10;87.50
40622;DHT22;26324;52.040;11.528;2024-01-11T22:04:58;1.10;87.50
40622;DHT22;26324;52.040;11.528;2024-01-11T22:07:25;1.10;87.40
40622;DHT22;26324;52.040;11.528;2024-01-11T22:09:53;1.10;87.40
40622;DHT22;26324;52.040;11.528;2024-01-11T22:12:20;1.10;87.30
40622;DHT22;26324;52.040;11.528;2024-01-11T22:14:47;1.10;87.30
40622;DHT22;26324;52.040;11.528;2024-01-11T22:17:15;1.10;87.30
40622;DHT22;26324;52.040;11.528;2024-01-11T22:19:42;1.10;87.20
40622;DHT22;26324;52.040;11.528;2024-01-11T22:22:10;1.10;87.30
40622;DHT22;26324;52.040;11.528;2024-01-11T22:24:37;1.10;87.30
40622;DHT22;26324;52.040;11.528;2024-01-11T22:27:04;1.10;87.30
